sensor_id;sensor_type;location;lat;lon;timestamp;temperature;humidity
65245;DHT22;51846;48.692;2.382;2022-10-16T00:01:42;15.63;93.55
65245;DHT22;51846;48.692;2.382;2022-10-16T00:04:08;15.57;93.74
65245;DHT22;51846;48.692;2.382;2022-10-16T00:06:33;15.54;93.71
65245;DHT22;51846;48.692;2.382;2022-10-16T00:08:59;15.55;93.68
65245;DHT22;51846;48.692;2.382;2022-10-16T00:11:25;15.53;93.80
65245;DHT22;51846;48.692;2.382;2022-10-16T00:13:51;15.51;93.74
65245;DHT22;51846;48.692;2.382;2022-10-16T00:16:17;15.47;93.50
65245;DHT22;51846;48.692;2.382;2022-10-16T00:18:43;15.47;93.83
65245;DHT22;51846;48.692;2.382;2022-10-16T00:21:16;15.46;93.94
65245;DHT22;51846;48.692;2.382;2022-10-16T00:23:41;15.39;93.23
65245;DHT22;51846;48.692;2.382;2022-10-16T00:26:08;15.42;93.76
65245;DHT22;51846;48.692;2.382;2022-10-16T00:28:34;15.34;93.11
65245;DHT22;51846;48.692;2.382;2022-10-16T00:31:02;15.36;93.34
65245;DHT22;51846;48.692;2.382;2022-10-16T00:33:27;15.29;93.13
65245;DHT22;51846;48.692;2.382;2022-10-16T00:35:52;15.30;93.32
65245;DHT22;51846;48.692;2.382;2022-10-16T00:38:17;15.30;93.48
65245;DHT22;51846;48.692;2.382;2022-10-16T00:40:43;15.29;93.67
65245;DHT22;51846;48.692;2.382;2022-10-16T00:45:53;15.29;93.33
65245;DHT22;51846;48.692;2.382;2022-10-16T00:48:19;15.36;93.14
65245;DHT22;51846;48.692;2.382;2022-10-16T00:50:44;15.36;93.12
65245;DHT22;51846;48.692;2.382;2022-10-16T00:53:09;15.36;92.84
65245;DHT22;51846;48.692;2.382;2022-10-16T00:55:36;15.27;92.77
65245;DHT22;51846;48.692;2.382;2022-10-16T00:58:01;15.33;92.70
65245;DHT22;51846;48.692;2.382;2022-10-16T01:00:26;15.39;92.44
65245;DHT22;51846;48.692;2.382;2022-10-16T01:02:55;15.29;92.43
65245;DHT22;51846;48.692;2.382;2022-10-16T01:05:22;15.19;92.36
65245;DHT22;51846;48.692;2.382;2022-10-16T01:10:36;15.07;92.56
65245;DHT22;51846;48.692;2.382;2022-10-16T01:18:22;15.03;92.70
65245;DHT22;51846;48.692;2.382;2022-10-16T01:23:21;15.00;92.37
65245;DHT22;51846;48.692;2.382;2022-10-16T01:28:22;15.10;92.18
65245;DHT22;51846;48.692;2.382;2022-10-16T01:30:47;15.04;91.97
65245;DHT22;51846;48.692;2.382;2022-10-16T01:33:19;14.99;92.06
65245;DHT22;51846;48.692;2.382;2022-10-16T01:35:47;15.00;92.01
65245;DHT22;51846;48.692;2.382;2022-10-16T01:40:43;14.98;91.42
65245;DHT22;51846;48.692;2.382;2022-10-16T01:43:11;14.92;91.00
65245;DHT22;51846;48.692;2.382;2022-10-16T01:45:37;14.93;91.84
65245;DHT22;51846;48.692;2.382;2022-10-16T01:48:03;14.96;91.62
65245;DHT22;51846;48.692;2.382;2022-10-16T01:50:33;15.14;91.20
65245;DHT22;51846;48.692;2.382;2022-10-16T01:53:00;15.22;90.85
65245;DHT22;51846;48.692;2.382;2022-10-16T01:55:32;15.32;90.69
65245;DHT22;51846;48.692;2.382;2022-10-16T01:57:58;15.39;90.38
65245;DHT22;51846;48.692;2.382;2022-10-16T02:00:25;15.37;90.24
65245;DHT22;51846;48.692;2.382;2022-10-16T02:02:51;15.23;90.32
65245;DHT22;51846;48.692;2.382;2022-10-16T02:05:31;15.12;90.63
65245;DHT22;51846;48.692;2.382;2022-10-16T02:07:57;15.00;90.82
65245;DHT22;51846;48.692;2.382;2022-10-16T02:10:22;14.92;90.95
65245;DHT22;51846;48.692;2.382;2022-10-16T02:12:54;14.86;91.22
65245;DHT22;51846;48.692;2.382;2022-10-16T02:15:21;14.86;91.44
65245;DHT22;51846;48.692;2.382;2022-10-16T02:17:46;14.96;91.33
65245;DHT22;51846;48.692;2.382;2022-10-16T02:20:11;14.95;90.74
65245;DHT22;51846;48.692;2.382;2022-10-16T02:22:38;14.88;91.23
65245;DHT22;51846;48.692;2.382;2022-10-16T02:25:06;14.93;91.37
65245;DHT22;51846;48.692;2.382;2022-10-16T02:27:34;15.02;91.31
65245;DHT22;51846;48.692;2.382;2022-10-16T02:30:08;14.98;91.02
65245;DHT22;51846;48.692;2.382;2022-10-16T02:32:37;14.95;91.56
65245;DHT22;51846;48.692;2.382;2022-10-16T02:35:05;15.03;91.20
65245;DHT22;51846;48.692;2.382;2022-10-16T02:37:31;15.13;91.06
65245;DHT22;51846;48.692;2.382;2022-10-16T02:39:57;15.04;91.40
65245;DHT22;51846;48.692;2.382;2022-10-16T02:42:27;14.92;91.69
65245;DHT22;51846;48.692;2.382;2022-10-16T02:44:52;14.83;91.87
65245;DHT22;51846;48.692;2.382;2022-10-16T02:47:17;14.79;92.08
65245;DHT22;51846;48.692;2.382;2022-10-16T02:49:42;14.76;92.29
65245;DHT22;51846;48.692;2.382;2022-10-16T02:52:08;14.73;92.31
65245;DHT22;51846;48.692;2.382;2022-10-16T02:54:33;14.72;92.18
65245;DHT22;51846;48.692;2.382;2022-10-16T02:56:58;14.71;92.25
65245;DHT22;51846;48.692;2.382;2022-10-16T02:59:23;14.73;92.26
65245;DHT22;51846;48.692;2.382;2022-10-16T03:01:49;14.73;92.24
65245;DHT22;51846;48.692;2.382;2022-10-16T03:04:14;14.73;92.11
65245;DHT22;51846;48.692;2.382;2022-10-16T03:06:40;14.73;92.26
65245;DHT22;51846;48.692;2.382;2022-10-16T03:09:05;14.72;92.16
65245;DHT22;51846;48.692;2.382;2022-10-16T03:11:30;14.83;91.97
65245;DHT22;51846;48.692;2.382;2022-10-16T03:13:55;15.00;91.50
65245;DHT22;51846;48.692;2.382;2022-10-16T03:16:20;15.00;91.51
65245;DHT22;51846;48.692;2.382;2022-10-16T03:18:49;14.98;91.48
65245;DHT22;51846;48.692;2.382;2022-10-16T03:21:14;14.89;91.62
65245;DHT22;51846;48.692;2.382;2022-10-16T03:23:40;14.89;91.82
65245;DHT22;51846;48.692;2.382;2022-10-16T03:26:05;14.92;91.74
65245;DHT22;51846;48.692;2.382;2022-10-16T03:28:30;14.90;91.42
65245;DHT22;51846;48.692;2.382;2022-10-16T03:30:55;15.04;91.14
65245;DHT22;51846;48.692;2.382;2022-10-16T03:33:20;15.16;90.85
65245;DHT22;51846;48.692;2.382;2022-10-16T03:35:50;15.19;90.69
65245;DHT22;51846;48.692;2.382;2022-10-16T03:38:15;14.95;91.35
65245;DHT22;51846;48.692;2.382;2022-10-16T03:40:41;14.79;91.83
65245;DHT22;51846;48.692;2.382;2022-10-16T03:43:06;14.71;92.46
65245;DHT22;51846;48.692;2.382;2022-10-16T03:45:31;14.66;92.68
65245;DHT22;51846;48.692;2.382;2022-10-16T03:47:56;14.66;92.92
65245;DHT22;51846;48.692;2.382;2022-10-16T03:50:22;14.64;92.93
65245;DHT22;51846;48.692;2.382;2022-10-16T03:52:47;14.65;93.27
65245;DHT22;51846;48.692;2.382;2022-10-16T03:55:12;14.68;93.24
65245;DHT22;51846;48.692;2.382;2022-10-16T03:57:37;14.71;93.19
65245;DHT22;51846;48.692;2.382;2022-10-16T04:00:03;14.83;92.75
65245;DHT22;51846;48.692;2.382;2022-10-16T04:02:28;14.80;92.68
65245;DHT22;51846;48.692;2.382;2022-10-16T04:04:53;14.73;92.90
65245;DHT22;51846;48.692;2.382;2022-10-16T04:07:19;14.72;93.24
65245;DHT22;51846;48.692;2.382;2022-10-16T04:09:44;14.72;93.34
65245;DHT22;51846;48.692;2.382;2022-10-16T04:12:09;14.88;92.91
65245;DHT22;51846;48.692;2.382;2022-10-16T04:14:34;15.02;92.43
65245;DHT22;51846;48.692;2.382;2022-10-16T04:17:00;14.85;92.73
65245;DHT22;51846;48.692;2.382;2022-10-16T04:19:25;14.93;92.85
65245;DHT22;51846;48.692;2.382;2022-10-16T04:21:51;15.04;92.20
65245;DHT22;51846;48.692;2.382;2022-10-16T04:24:16;15.00;92.16
65245;DHT22;51846;48.692;2.382;2022-10-16T04:26:41;14.96;92.50
65245;DHT22;51846;48.692;2.382;2022-10-16T04:29:07;14.80;93.05
65245;DHT22;51846;48.692;2.382;2022-10-16T04:31:32;14.73;93.35
65245;DHT22;51846;48.692;2.382;2022-10-16T04:33:58;14.71;93.63
65245;DHT22;51846;48.692;2.382;2022-10-16T04:36:23;14.69;93.79
65245;DHT22;51846;48.692;2.382;2022-10-16T04:38:51;14.68;93.75
65245;DHT22;51846;48.692;2.382;2022-10-16T04:41:16;14.68;93.98
65245;DHT22;51846;48.692;2.382;2022-10-16T04:43:41;14.65;94.17
65245;DHT22;51846;48.692;2.382;2022-10-16T04:46:06;14.68;94.20
65245;DHT22;51846;48.692;2.382;2022-10-16T04:48:32;14.68;94.07
65245;DHT22;51846;48.692;2.382;2022-10-16T04:50:58;14.76;94.16
65245;DHT22;51846;48.692;2.382;2022-10-16T04:53:23;14.92;93.55
65245;DHT22;51846;48.692;2.382;2022-10-16T04:55:49;15.02;93.24
65245;DHT22;51846;48.692;2.382;2022-10-16T04:58:14;14.99;93.28
65245;DHT22;51846;48.692;2.382;2022-10-16T05:00:39;14.86;93.39
65245;DHT22;51846;48.692;2.382;2022-10-16T05:03:05;15.04;93.10
65245;DHT22;51846;48.692;2.382;2022-10-16T05:05:33;15.16;92.54
65245;DHT22;51846;48.692;2.382;2022-10-16T05:07:58;15.19;92.46
65245;DHT22;51846;48.692;2.382;2022-10-16T05:10:23;15.13;92.75
65245;DHT22;51846;48.692;2.382;2022-10-16T05:12:48;14.99;92.99
65245;DHT22;51846;48.692;2.382;2022-10-16T05:15:14;14.89;93.55
65245;DHT22;51846;48.692;2.382;2022-10-16T05:17:39;14.88;93.74
65245;DHT22;51846;48.692;2.382;2022-10-16T05:20:05;14.93;93.80
65245;DHT22;51846;48.692;2.382;2022-10-16T05:22:30;15.06;93.23
65245;DHT22;51846;48.692;2.382;2022-10-16T05:24:55;15.18;92.79
65245;DHT22;51846;48.692;2.382;2022-10-16T05:27:21;15.27;92.30
65245;DHT22;51846;48.692;2.382;2022-10-16T05:29:46;15.33;91.97
65245;DHT22;51846;48.692;2.382;2022-10-16T05:32:12;15.40;91.94
65245;DHT22;51846;48.692;2.382;2022-10-16T05:34:37;15.39;91.73
65245;DHT22;51846;48.692;2.382;2022-10-16T05:37:02;15.43;91.79
65245;DHT22;51846;48.692;2.382;2022-10-16T05:39:28;15.44;91.95
65245;DHT22;51846;48.692;2.382;2022-10-16T05:41:53;15.46;91.66
65245;DHT22;51846;48.692;2.382;2022-10-16T05:44:18;15.36;92.07
65245;DHT22;51846;48.692;2.382;2022-10-16T05:46:43;15.23;92.12
65245;DHT22;51846;48.692;2.382;2022-10-16T05:49:10;15.32;92.11
65245;DHT22;51846;48.692;2.382;2022-10-16T05:51:36;15.37;91.94
65245;DHT22;51846;48.692;2.382;2022-10-16T05:54:01;15.37;91.69
65245;DHT22;51846;48.692;2.382;2022-10-16T05:56:26;15.37;91.57
65245;DHT22;51846;48.692;2.382;2022-10-16T05:58:51;15.43;91.46
65245;DHT22;51846;48.692;2.382;2022-10-16T06:01:17;15.44;91.47
65245;DHT22;51846;48.692;2.382;2022-10-16T06:03:43;15.43;91.40
65245;DHT22;51846;48.692;2.382;2022-10-16T06:06:12;15.43;91.40
65245;DHT22;51846;48.692;2.382;2022-10-16T06:08:39;15.46;91.11
65245;DHT22;51846;48.692;2.382;2022-10-16T06:11:05;15.46;91.23
65245;DHT22;51846;48.692;2.382;2022-10-16T06:13:31;15.44;91.13
65245;DHT22;51846;48.692;2.382;2022-10-16T06:15:57;15.43;91.04
65245;DHT22;51846;48.692;2.382;2022-10-16T06:18:22;15.42;91.02
65245;DHT22;51846;48.692;2.382;2022-10-16T06:20:48;15.42;91.16
65245;DHT22;51846;48.692;2.382;2022-10-16T06:23:13;15.39;91.11
65245;DHT22;51846;48.692;2.382;2022-10-16T06:25:38;15.39;91.26
65245;DHT22;51846;48.692;2.382;2022-10-16T06:28:04;15.37;91.20
65245;DHT22;51846;48.692;2.382;2022-10-16T06:30:29;15.34;91.41
65245;DHT22;51846;48.692;2.382;2022-10-16T06:32:54;15.29;91.35
65245;DHT22;51846;48.692;2.382;2022-10-16T06:35:19;15.12;92.38
65245;DHT22;51846;48.692;2.382;2022-10-16T06:37:45;14.90;93.46
65245;DHT22;51846;48.692;2.382;2022-10-16T06:40:10;14.80;94.24
65245;DHT22;51846;48.692;2.382;2022-10-16T06:42:35;14.78;94.48
65245;DHT22;51846;48.692;2.382;2022-10-16T06:45:01;14.71;94.74
65245;DHT22;51846;48.692;2.382;2022-10-16T06:47:27;14.69;94.92
65245;DHT22;51846;48.692;2.382;2022-10-16T06:49:52;14.66;95.02
65245;DHT22;51846;48.692;2.382;2022-10-16T06:52:17;14.71;94.97
65245;DHT22;51846;48.692;2.382;2022-10-16T06:54:42;14.83;94.73
65245;DHT22;51846;48.692;2.382;2022-10-16T06:57:07;14.96;94.20
65245;DHT22;51846;48.692;2.382;2022-10-16T06:59:33;15.09;93.66
65245;DHT22;51846;48.692;2.382;2022-10-16T07:01:58;15.19;93.22
65245;DHT22;51846;48.692;2.382;2022-10-16T07:04:23;15.27;92.89
65245;DHT22;51846;48.692;2.382;2022-10-16T07:06:48;15.32;92.52
65245;DHT22;51846;48.692;2.382;2022-10-16T07:09:14;15.33;92.87
65245;DHT22;51846;48.692;2.382;2022-10-16T07:11:39;15.19;93.50
65245;DHT22;51846;48.692;2.382;2022-10-16T07:14:05;15.12;93.99
65245;DHT22;51846;48.692;2.382;2022-10-16T07:16:34;15.04;93.91
65245;DHT22;51846;48.692;2.382;2022-10-16T07:19:00;15.03;94.05
65245;DHT22;51846;48.692;2.382;2022-10-16T07:21:26;15.00;94.28
65245;DHT22;51846;48.692;2.382;2022-10-16T07:23:53;15.00;94.28
65245;DHT22;51846;48.692;2.382;2022-10-16T07:26:18;14.99;94.60
65245;DHT22;51846;48.692;2.382;2022-10-16T07:28:43;15.00;94.67
65245;DHT22;51846;48.692;2.382;2022-10-16T07:31:12;14.92;94.60
65245;DHT22;51846;48.692;2.382;2022-10-16T07:33:41;14.92;94.78
65245;DHT22;51846;48.692;2.382;2022-10-16T07:36:08;14.88;94.77
65245;DHT22;51846;48.692;2.382;2022-10-16T07:38:33;14.96;94.79
65245;DHT22;51846;48.692;2.382;2022-10-16T07:40:59;14.93;94.54
65245;DHT22;51846;48.692;2.382;2022-10-16T07:43:25;14.98;94.54
65245;DHT22;51846;48.692;2.382;2022-10-16T07:45:50;14.98;94.66
65245;DHT22;51846;48.692;2.382;2022-10-16T07:48:16;14.92;94.17
65245;DHT22;51846;48.692;2.382;2022-10-16T07:50:42;14.96;94.32
65245;DHT22;51846;48.692;2.382;2022-10-16T07:53:07;15.07;94.25
65245;DHT22;51846;48.692;2.382;2022-10-16T07:55:32;15.19;94.17
65245;DHT22;51846;48.692;2.382;2022-10-16T07:57:58;15.27;94.05
65245;DHT22;51846;48.692;2.382;2022-10-16T08:00:23;15.27;93.35
65245;DHT22;51846;48.692;2.382;2022-10-16T08:02:48;15.20;93.09
65245;DHT22;51846;48.692;2.382;2022-10-16T08:05:13;15.24;93.13
65245;DHT22;51846;48.692;2.382;2022-10-16T08:07:39;15.24;92.88
65245;DHT22;51846;48.692;2.382;2022-10-16T08:10:04;15.36;92.85
65245;DHT22;51846;48.692;2.382;2022-10-16T08:12:29;15.46;92.63
65245;DHT22;51846;48.692;2.382;2022-10-16T08:14:55;15.46;92.12
65245;DHT22;51846;48.692;2.382;2022-10-16T08:17:20;15.55;91.79
65245;DHT22;51846;48.692;2.382;2022-10-16T08:19:48;15.70;92.19
65245;DHT22;51846;48.692;2.382;2022-10-16T08:22:14;15.78;91.59
65245;DHT22;51846;48.692;2.382;2022-10-16T08:24:39;15.78;91.83
65245;DHT22;51846;48.692;2.382;2022-10-16T08:27:04;15.85;90.64
65245;DHT22;51846;48.692;2.382;2022-10-16T08:29:30;15.84;90.81
65245;DHT22;51846;48.692;2.382;2022-10-16T08:31:55;15.87;90.54
65245;DHT22;51846;48.692;2.382;2022-10-16T08:34:20;15.87;90.30
65245;DHT22;51846;48.692;2.382;2022-10-16T08:36:46;15.97;89.99
65245;DHT22;51846;48.692;2.382;2022-10-16T08:39:11;16.04;90.21
65245;DHT22;51846;48.692;2.382;2022-10-16T08:44:29;16.01;89.92
65245;DHT22;51846;48.692;2.382;2022-10-16T08:49:58;16.26;88.77
65245;DHT22;51846;48.692;2.382;2022-10-16T08:52:31;16.24;88.06
65245;DHT22;51846;48.692;2.382;2022-10-16T08:54:57;16.24;87.99
65245;DHT22;51846;48.692;2.382;2022-10-16T08:57:24;16.30;88.18
65245;DHT22;51846;48.692;2.382;2022-10-16T08:59:49;16.41;87.28
65245;DHT22;51846;48.692;2.382;2022-10-16T09:07:35;16.49;87.03
65245;DHT22;51846;48.692;2.382;2022-10-16T09:10:12;16.41;85.21
65245;DHT22;51846;48.692;2.382;2022-10-16T09:12:44;16.42;87.19
65245;DHT22;51846;48.692;2.382;2022-10-16T09:17:52;16.55;86.50
65245;DHT22;51846;48.692;2.382;2022-10-16T09:20:22;16.63;85.61
65245;DHT22;51846;48.692;2.382;2022-10-16T09:25:34;16.56;86.74
65245;DHT22;51846;48.692;2.382;2022-10-16T09:28:00;16.62;86.95
65245;DHT22;51846;48.692;2.382;2022-10-16T09:30:26;16.69;86.53
65245;DHT22;51846;48.692;2.382;2022-10-16T09:32:52;16.70;86.35
65245;DHT22;51846;48.692;2.382;2022-10-16T09:36:18;16.90;86.44
65245;DHT22;51846;48.692;2.382;2022-10-16T09:38:32;17.13;85.85
65245;DHT22;51846;48.692;2.382;2022-10-16T09:40:58;17.23;84.92
65245;DHT22;51846;48.692;2.382;2022-10-16T09:43:35;17.02;85.36
65245;DHT22;51846;48.692;2.382;2022-10-16T09:46:05;16.89;84.95
65245;DHT22;51846;48.692;2.382;2022-10-16T09:48:37;16.90;85.78
65245;DHT22;51846;48.692;2.382;2022-10-16T09:51:05;16.96;85.73
65245;DHT22;51846;48.692;2.382;2022-10-16T09:53:43;17.09;85.99
65245;DHT22;51846;48.692;2.382;2022-10-16T09:56:10;17.23;84.78
65245;DHT22;51846;48.692;2.382;2022-10-16T09:58:35;17.26;85.06
65245;DHT22;51846;48.692;2.382;2022-10-16T10:01:02;17.27;84.85
65245;DHT22;51846;48.692;2.382;2022-10-16T10:03:37;17.34;84.72
65245;DHT22;51846;48.692;2.382;2022-10-16T10:06:07;17.37;83.52
65245;DHT22;51846;48.692;2.382;2022-10-16T10:08:40;17.38;84.29
65245;DHT22;51846;48.692;2.382;2022-10-16T10:11:05;17.54;84.00
65245;DHT22;51846;48.692;2.382;2022-10-16T10:13:30;17.63;83.18
65245;DHT22;51846;48.692;2.382;2022-10-16T10:15:55;17.67;82.46
65245;DHT22;51846;48.692;2.382;2022-10-16T10:18:21;17.89;83.03
65245;DHT22;51846;48.692;2.382;2022-10-16T10:20:59;17.95;82.35
65245;DHT22;51846;48.692;2.382;2022-10-16T10:23:25;17.81;82.63
65245;DHT22;51846;48.692;2.382;2022-10-16T10:33:30;17.53;82.75
65245;DHT22;51846;48.692;2.382;2022-10-16T10:36:11;17.58;81.69
65245;DHT22;51846;48.692;2.382;2022-10-16T10:44:10;17.58;81.70
65245;DHT22;51846;48.692;2.382;2022-10-16T10:49:08;17.65;82.15
65245;DHT22;51846;48.692;2.382;2022-10-16T10:54:17;17.64;82.49
65245;DHT22;51846;48.692;2.382;2022-10-16T10:56:50;17.67;81.89
65245;DHT22;51846;48.692;2.382;2022-10-16T11:02:26;17.74;81.43
65245;DHT22;51846;48.692;2.382;2022-10-16T11:09:56;18.01;81.03
65245;DHT22;51846;48.692;2.382;2022-10-16T11:12:27;17.99;80.70
65245;DHT22;51846;48.692;2.382;2022-10-16T11:17:39;18.09;80.51
65245;DHT22;51846;48.692;2.382;2022-10-16T11:22:50;18.24;80.88
65245;DHT22;51846;48.692;2.382;2022-10-16T11:25:26;18.36;80.05
65245;DHT22;51846;48.692;2.382;2022-10-16T11:27:57;18.40;79.00
65245;DHT22;51846;48.692;2.382;2022-10-16T11:30:24;18.46;79.25
65245;DHT22;51846;48.692;2.382;2022-10-16T11:38:24;18.43;79.42
65245;DHT22;51846;48.692;2.382;2022-10-16T11:40:52;18.35;79.90
65245;DHT22;51846;48.692;2.382;2022-10-16T11:45:51;18.32;80.49
65245;DHT22;51846;48.692;2.382;2022-10-16T11:48:31;18.40;80.33
65245;DHT22;51846;48.692;2.382;2022-10-16T11:53:38;18.39;80.49
65245;DHT22;51846;48.692;2.382;2022-10-16T11:56:05;18.35;80.69
65245;DHT22;51846;48.692;2.382;2022-10-16T11:58:32;18.38;80.70
65245;DHT22;51846;48.692;2.382;2022-10-16T12:03:33;18.43;81.46
65245;DHT22;51846;48.692;2.382;2022-10-16T12:06:11;18.40;81.00
65245;DHT22;51846;48.692;2.382;2022-10-16T12:08:37;18.49;81.39
65245;DHT22;51846;48.692;2.382;2022-10-16T12:11:19;18.42;81.40
65245;DHT22;51846;48.692;2.382;2022-10-16T12:13:47;18.45;81.67
65245;DHT22;51846;48.692;2.382;2022-10-16T12:18:44;18.69;81.13
65245;DHT22;51846;48.692;2.382;2022-10-16T12:21:11;18.80;81.12
65245;DHT22;51846;48.692;2.382;2022-10-16T12:23:53;18.82;81.28
65245;DHT22;51846;48.692;2.382;2022-10-16T12:26:26;18.93;80.79
65245;DHT22;51846;48.692;2.382;2022-10-16T12:28:51;19.00;80.43
65245;DHT22;51846;48.692;2.382;2022-10-16T12:31:17;19.00;80.38
65245;DHT22;51846;48.692;2.382;2022-10-16T12:33:56;18.97;80.71
65245;DHT22;51846;48.692;2.382;2022-10-16T12:36:29;18.97;80.67
65245;DHT22;51846;48.692;2.382;2022-10-16T12:38:55;19.07;80.89
65245;DHT22;51846;48.692;2.382;2022-10-16T12:41:30;19.16;80.35
65245;DHT22;51846;48.692;2.382;2022-10-16T12:43:56;19.31;81.01
65245;DHT22;51846;48.692;2.382;2022-10-16T12:46:23;19.32;80.88
65245;DHT22;51846;48.692;2.382;2022-10-16T12:48:49;19.31;80.37
65245;DHT22;51846;48.692;2.382;2022-10-16T12:53:57;19.50;80.73
65245;DHT22;51846;48.692;2.382;2022-10-16T12:56:24;19.62;79.91
65245;DHT22;51846;48.692;2.382;2022-10-16T13:06:45;19.79;79.03
65245;DHT22;51846;48.692;2.382;2022-10-16T13:22:25;20.19;77.81
65245;DHT22;51846;48.692;2.382;2022-10-16T13:30:19;20.57;77.51
65245;DHT22;51846;48.692;2.382;2022-10-16T13:35:34;20.50;77.84
65245;DHT22;51846;48.692;2.382;2022-10-16T13:38:04;20.30;77.99
65245;DHT22;51846;48.692;2.382;2022-10-16T13:40:29;20.30;79.83
65245;DHT22;51846;48.692;2.382;2022-10-16T13:42:55;20.23;78.86
65245;DHT22;51846;48.692;2.382;2022-10-16T13:45:22;20.25;78.67
65245;DHT22;51846;48.692;2.382;2022-10-16T13:47:47;20.28;79.44
65245;DHT22;51846;48.692;2.382;2022-10-16T13:50:13;20.33;79.36
65245;DHT22;51846;48.692;2.382;2022-10-16T13:52:39;20.39;78.41
65245;DHT22;51846;48.692;2.382;2022-10-16T13:55:14;20.36;78.92
65245;DHT22;51846;48.692;2.382;2022-10-16T13:57:40;20.40;78.16
65245;DHT22;51846;48.692;2.382;2022-10-16T14:00:21;20.23;78.75
65245;DHT22;51846;48.692;2.382;2022-10-16T14:02:50;20.23;78.99
65245;DHT22;51846;48.692;2.382;2022-10-16T14:05:15;20.30;79.48
65245;DHT22;51846;48.692;2.382;2022-10-16T14:07:41;20.40;79.27
65245;DHT22;51846;48.692;2.382;2022-10-16T14:10:18;20.42;78.85
65245;DHT22;51846;48.692;2.382;2022-10-16T14:12:45;20.37;78.59
65245;DHT22;51846;48.692;2.382;2022-10-16T14:15:17;20.43;78.70
65245;DHT22;51846;48.692;2.382;2022-10-16T14:17:43;20.42;79.44
65245;DHT22;51846;48.692;2.382;2022-10-16T14:20:11;20.42;79.32
65245;DHT22;51846;48.692;2.382;2022-10-16T14:22:42;20.49;79.09
65245;DHT22;51846;48.692;2.382;2022-10-16T14:27:45;20.62;78.76
65245;DHT22;51846;48.692;2.382;2022-10-16T14:30:15;20.66;78.67
65245;DHT22;51846;48.692;2.382;2022-10-16T14:32:41;20.60;79.22
65245;DHT22;51846;48.692;2.382;2022-10-16T14:35:29;20.59;78.92
65245;DHT22;51846;48.692;2.382;2022-10-16T14:37:53;20.63;78.96
65245;DHT22;51846;48.692;2.382;2022-10-16T14:40:19;20.66;78.75
65245;DHT22;51846;48.692;2.382;2022-10-16T14:42:45;20.62;79.21
65245;DHT22;51846;48.692;2.382;2022-10-16T14:45:10;20.62;78.90
65245;DHT22;51846;48.692;2.382;2022-10-16T14:47:36;20.57;79.06
65245;DHT22;51846;48.692;2.382;2022-10-16T14:50:11;20.59;79.38
65245;DHT22;51846;48.692;2.382;2022-10-16T14:52:36;20.54;79.45
65245;DHT22;51846;48.692;2.382;2022-10-16T14:55:02;20.52;79.75
65245;DHT22;51846;48.692;2.382;2022-10-16T14:57:27;20.52;79.48
65245;DHT22;51846;48.692;2.382;2022-10-16T14:59:55;20.53;80.21
65245;DHT22;51846;48.692;2.382;2022-10-16T15:02:28;20.50;80.30
65245;DHT22;51846;48.692;2.382;2022-10-16T15:04:54;20.54;80.07
65245;DHT22;51846;48.692;2.382;2022-10-16T15:07:20;20.54;80.18
65245;DHT22;51846;48.692;2.382;2022-10-16T15:09:45;20.52;80.11
65245;DHT22;51846;48.692;2.382;2022-10-16T15:12:10;20.54;80.56
65245;DHT22;51846;48.692;2.382;2022-10-16T15:14:35;20.62;81.00
65245;DHT22;51846;48.692;2.382;2022-10-16T15:17:01;20.64;80.42
65245;DHT22;51846;48.692;2.382;2022-10-16T15:19:26;20.72;80.92
65245;DHT22;51846;48.692;2.382;2022-10-16T15:21:51;20.70;79.98
65245;DHT22;51846;48.692;2.382;2022-10-16T15:24:17;20.67;80.19
65245;DHT22;51846;48.692;2.382;2022-10-16T15:26:42;20.64;80.39
65245;DHT22;51846;48.692;2.382;2022-10-16T15:29:08;20.66;80.09
65245;DHT22;51846;48.692;2.382;2022-10-16T15:31:33;20.66;80.63
65245;DHT22;51846;48.692;2.382;2022-10-16T15:33:59;20.67;80.38
65245;DHT22;51846;48.692;2.382;2022-10-16T15:36:29;20.67;80.57
65245;DHT22;51846;48.692;2.382;2022-10-16T15:38:58;20.70;80.76
65245;DHT22;51846;48.692;2.382;2022-10-16T15:41:24;20.69;80.91
65245;DHT22;51846;48.692;2.382;2022-10-16T15:43:49;20.73;80.96
65245;DHT22;51846;48.692;2.382;2022-10-16T15:46:15;20.72;80.90
65245;DHT22;51846;48.692;2.382;2022-10-16T15:48:42;20.69;80.36
65245;DHT22;51846;48.692;2.382;2022-10-16T15:51:08;20.69;81.05
65245;DHT22;51846;48.692;2.382;2022-10-16T15:53:34;20.64;81.06
65245;DHT22;51846;48.692;2.382;2022-10-16T15:56:02;20.66;80.83
65245;DHT22;51846;48.692;2.382;2022-10-16T15:58:28;20.62;81.10
65245;DHT22;51846;48.692;2.382;2022-10-16T16:00:57;20.69;81.39
65245;DHT22;51846;48.692;2.382;2022-10-16T16:03:22;20.67;81.03
65245;DHT22;51846;48.692;2.382;2022-10-16T16:05:48;20.79;80.82
65245;DHT22;51846;48.692;2.382;2022-10-16T16:08:13;20.81;80.79
65245;DHT22;51846;48.692;2.382;2022-10-16T16:10:38;20.84;81.26
65245;DHT22;51846;48.692;2.382;2022-10-16T16:13:03;20.83;81.42
65245;DHT22;51846;48.692;2.382;2022-10-16T16:15:29;20.86;81.01
65245;DHT22;51846;48.692;2.382;2022-10-16T16:17:54;20.81;81.59
65245;DHT22;51846;48.692;2.382;2022-10-16T16:20:19;20.83;81.52
65245;DHT22;51846;48.692;2.382;2022-10-16T16:22:45;20.80;81.09
65245;DHT22;51846;48.692;2.382;2022-10-16T16:25:10;20.80;82.20
65245;DHT22;51846;48.692;2.382;2022-10-16T16:27:35;20.80;81.51
65245;DHT22;51846;48.692;2.382;2022-10-16T16:30:03;20.83;81.60
65245;DHT22;51846;48.692;2.382;2022-10-16T16:32:28;20.81;81.63
65245;DHT22;51846;48.692;2.382;2022-10-16T16:34:54;20.81;81.43
65245;DHT22;51846;48.692;2.382;2022-10-16T16:37:19;20.80;81.98
65245;DHT22;51846;48.692;2.382;2022-10-16T16:39:44;20.80;81.44
65245;DHT22;51846;48.692;2.382;2022-10-16T16:42:10;20.77;81.59
65245;DHT22;51846;48.692;2.382;2022-10-16T16:44:35;20.73;82.09
65245;DHT22;51846;48.692;2.382;2022-10-16T16:47:04;20.67;82.31
65245;DHT22;51846;48.692;2.382;2022-10-16T16:49:30;20.63;83.12
65245;DHT22;51846;48.692;2.382;2022-10-16T16:51:55;20.54;83.47
65245;DHT22;51846;48.692;2.382;2022-10-16T16:54:21;20.46;83.50
65245;DHT22;51846;48.692;2.382;2022-10-16T16:56:46;20.42;83.82
65245;DHT22;51846;48.692;2.382;2022-10-16T16:59:16;20.34;84.01
65245;DHT22;51846;48.692;2.382;2022-10-16T17:01:43;20.23;84.58
65245;DHT22;51846;48.692;2.382;2022-10-16T17:04:08;20.18;85.00
65245;DHT22;51846;48.692;2.382;2022-10-16T17:06:33;20.04;85.34
65245;DHT22;51846;48.692;2.382;2022-10-16T17:09:00;19.98;85.42
65245;DHT22;51846;48.692;2.382;2022-10-16T17:11:26;19.92;85.29
65245;DHT22;51846;48.692;2.382;2022-10-16T17:13:52;19.92;85.54
65245;DHT22;51846;48.692;2.382;2022-10-16T17:16:19;19.83;85.56
65245;DHT22;51846;48.692;2.382;2022-10-16T17:18:44;19.77;85.83
65245;DHT22;51846;48.692;2.382;2022-10-16T17:21:09;19.69;86.06
65245;DHT22;51846;48.692;2.382;2022-10-16T17:23:35;19.64;86.25
65245;DHT22;51846;48.692;2.382;2022-10-16T17:26:05;19.57;86.10